createdAt,value
2023-01-04T00:00:18.151Z,18.03
2023-01-04T00:02:46.808Z,17.23
2023-01-04T00:05:15.372Z,17.13
2023-01-04T00:07:43.901Z,15.70
2023-01-04T00:10:13.831Z,16.17
2023-01-04T00:12:42.777Z,16.27
2023-01-04T00:15:12.035Z,15.83
2023-01-04T00:17:40.557Z,14.73
2023-01-04T00:20:09.916Z,15.87
2023-01-04T00:22:38.580Z,16.37
2023-01-04T00:25:07.928Z,15.47
2023-01-04T00:27:37.789Z,14.67
2023-01-04T00:30:07.175Z,15.20
2023-01-04T00:32:35.738Z,13.17
2023-01-04T00:35:04.283Z,14.20
2023-01-04T00:37:33.006Z,14.17
2023-01-04T00:40:01.620Z,14.17
2023-01-04T00:42:30.245Z,14.10
2023-01-04T00:45:00.158Z,15.20
2023-01-04T00:47:29.852Z,15.47
2023-01-04T00:49:58.402Z,14.83
2023-01-04T00:52:28.063Z,13.63
2023-01-04T00:54:56.605Z,13.57
2023-01-04T00:57:25.107Z,13.90
2023-01-04T00:59:53.619Z,12.80
2023-01-04T01:02:23.629Z,13.13
2023-01-04T01:04:52.357Z,12.77
2023-01-04T01:07:20.921Z,13.63
2023-01-04T01:09:49.454Z,41.50
2023-01-04T01:12:18.016Z,41.30
2023-01-04T01:14:46.588Z,26.97
2023-01-04T01:17:15.299Z,18.33
2023-01-04T01:19:45.281Z,15.97
2023-01-04T01:22:16.200Z,14.73
2023-01-04T01:24:44.846Z,13.93
2023-01-04T01:27:13.395Z,13.37
2023-01-04T01:29:41.905Z,13.00
2023-01-04T01:32:10.479Z,12.80
2023-01-04T01:34:39.093Z,12.93
2023-01-04T01:37:09.017Z,12.80
2023-01-04T01:39:37.510Z,13.37
2023-01-04T01:42:06.021Z,12.10
2023-01-04T01:45:10.964Z,11.57
2023-01-04T01:47:42.691Z,12.07
2023-01-04T01:50:20.750Z,10.90
2023-01-04T01:52:51.167Z,11.37
2023-01-04T01:55:19.723Z,11.17
2023-01-04T01:57:50.935Z,16.03
2023-01-04T02:00:19.742Z,18.50
2023-01-04T02:02:59.350Z,17.90
2023-01-04T02:05:28.837Z,15.07
2023-01-04T02:07:58.952Z,14.03
2023-01-04T02:10:28.260Z,12.43
2023-01-04T02:12:56.803Z,11.70
2023-01-04T02:15:27.760Z,11.70
2023-01-04T02:18:02.046Z,11.17
2023-01-04T02:20:40.473Z,11.37
2023-01-04T02:23:36.854Z,19.20
2023-01-04T02:26:59.592Z,29.43
2023-01-04T02:30:16.099Z,18.97
2023-01-04T02:32:56.394Z,12.43
2023-01-04T02:35:29.452Z,11.00
2023-01-04T02:38:04.525Z,10.03
2023-01-04T02:40:49.644Z,9.13
2023-01-04T02:43:42.016Z,9.50
2023-01-04T02:46:15.338Z,9.00
2023-01-04T02:49:02.712Z,8.27
2023-01-04T02:51:33.402Z,8.73
2023-01-04T02:54:05.218Z,9.00
2023-01-04T02:57:15.160Z,9.37
2023-01-04T03:00:04.101Z,9.23
2023-01-04T03:03:14.615Z,9.17
2023-01-04T03:06:09.288Z,8.67
2023-01-04T03:08:41.127Z,8.70
2023-01-04T03:11:32.158Z,8.90
2023-01-04T03:14:01.952Z,9.33
2023-01-04T03:16:52.099Z,9.50
2023-01-04T03:19:48.890Z,9.27
2023-01-04T03:22:38.693Z,9.70
2023-01-04T03:25:25.964Z,9.67
2023-01-04T03:28:13.439Z,9.03
2023-01-04T03:31:04.912Z,9.73
2023-01-04T03:33:51.436Z,9.07
2023-01-04T03:36:33.049Z,9.33
2023-01-04T03:39:23.673Z,9.53
2023-01-04T03:42:14.677Z,9.33
2023-01-04T03:45:10.091Z,9.07
2023-01-04T03:48:00.261Z,9.90
2023-01-04T03:50:32.196Z,9.53
2023-01-04T03:53:01.026Z,9.70
2023-01-04T03:55:32.473Z,10.10
2023-01-04T03:58:01.791Z,11.97
2023-01-04T04:00:30.720Z,13.50
2023-01-04T04:03:07.422Z,12.20
2023-01-04T04:05:56.914Z,10.57
2023-01-04T04:08:29.104Z,9.90
2023-01-04T04:11:22.103Z,9.77
2023-01-04T04:13:51.581Z,8.77
2023-01-04T04:16:20.830Z,8.40
2023-01-04T04:18:49.486Z,8.70
2023-01-04T04:21:18.139Z,8.70
2023-01-04T04:23:46.738Z,8.40
2023-01-04T04:26:16.762Z,7.60
2023-01-04T04:28:45.454Z,8.37
2023-01-04T04:31:14.467Z,7.97
2023-01-04T04:33:43.080Z,7.93
2023-01-04T04:36:12.790Z,8.00
2023-01-04T04:38:41.285Z,8.00
2023-01-04T04:41:28.148Z,7.57
2023-01-04T04:43:59.063Z,7.63
2023-01-04T04:46:28.217Z,7.60
2023-01-04T04:48:56.798Z,7.63
2023-01-04T04:51:25.313Z,7.90
2023-01-04T04:53:53.995Z,7.40
2023-01-04T04:56:22.655Z,7.40
2023-01-04T04:58:51.551Z,7.60
2023-01-04T05:01:21.650Z,7.67
2023-01-04T05:03:50.315Z,7.70
2023-01-04T05:06:19.017Z,8.30
2023-01-04T05:08:47.674Z,11.20
2023-01-04T05:11:16.436Z,11.10
2023-01-04T05:13:43.957Z,10.90
2023-01-04T05:16:12.578Z,10.67
2023-01-04T05:18:42.522Z,10.17
2023-01-04T05:21:14.448Z,9.53
2023-01-04T05:23:45.451Z,8.10
2023-01-04T05:26:13.981Z,7.63
2023-01-04T05:28:44.136Z,7.30
2023-01-04T05:31:14.848Z,6.70
2023-01-04T05:33:44.841Z,6.27
2023-01-04T05:36:13.361Z,6.80
2023-01-04T05:38:41.882Z,6.40
2023-01-04T05:41:30.516Z,6.33
2023-01-04T05:43:59.025Z,6.00
2023-01-04T05:46:27.637Z,5.87
2023-01-04T05:48:57.726Z,5.57
2023-01-04T05:51:26.176Z,5.33
2023-01-04T05:53:54.667Z,5.90
2023-01-04T05:56:23.161Z,12.47
2023-01-04T05:58:51.645Z,13.97
2023-01-04T06:01:20.201Z,9.27
2023-01-04T06:03:48.878Z,7.20
2023-01-04T06:06:19.008Z,7.00
2023-01-04T06:08:54.777Z,6.77
2023-01-04T06:11:27.541Z,6.90
2023-01-04T06:13:56.537Z,6.47
2023-01-04T06:16:25.192Z,6.43
2023-01-04T06:18:54.154Z,6.30
2023-01-04T06:21:25.426Z,6.07
2023-01-04T06:23:54.257Z,7.27
2023-01-04T06:26:22.824Z,8.30
2023-01-04T06:28:51.315Z,10.10
2023-01-04T06:31:19.976Z,10.97
2023-01-04T06:33:48.554Z,9.97
2023-01-04T06:36:19.852Z,11.67
2023-01-04T06:38:50.920Z,9.27
2023-01-04T06:41:19.709Z,6.60
2023-01-04T06:43:48.268Z,6.57
2023-01-04T06:46:16.980Z,6.30
2023-01-04T06:48:45.570Z,5.60
2023-01-04T06:51:14.148Z,6.70
2023-01-04T06:53:42.674Z,6.90
2023-01-04T06:56:12.639Z,6.40
2023-01-04T06:58:41.355Z,5.80
2023-01-04T07:01:10.103Z,6.00
2023-01-04T07:03:38.853Z,6.17
2023-01-04T07:06:08.591Z,6.20
2023-01-04T07:08:37.322Z,6.43
2023-01-04T07:11:06.100Z,14.07
2023-01-04T07:13:36.034Z,9.33
2023-01-04T07:16:04.654Z,6.90
2023-01-04T07:18:33.174Z,6.53
2023-01-04T07:21:02.159Z,11.50
2023-01-04T07:23:30.700Z,16.30
2023-01-04T07:26:02.854Z,12.47
2023-01-04T07:28:49.067Z,9.23
2023-01-04T07:31:19.137Z,9.23
2023-01-04T07:33:50.822Z,7.10
2023-01-04T07:36:19.464Z,8.10
2023-01-04T07:38:48.103Z,11.27
2023-01-04T07:41:16.623Z,12.20
2023-01-04T07:43:46.966Z,14.33
2023-01-04T07:46:18.800Z,10.93
2023-01-04T07:48:48.823Z,8.97
2023-01-04T07:51:17.658Z,8.10
2023-01-04T07:53:46.212Z,7.00
2023-01-04T07:56:18.662Z,6.63
2023-01-04T07:58:47.405Z,6.93
2023-01-04T08:01:18.724Z,6.13
2023-01-04T08:03:48.875Z,6.43
2023-01-04T08:06:18.236Z,6.17
2023-01-04T08:08:46.815Z,6.90
2023-01-04T08:11:17.148Z,8.60
2023-01-04T08:13:45.910Z,34.20
2023-01-04T08:16:22.045Z,30.50
2023-01-04T08:18:54.276Z,15.90
2023-01-04T08:21:23.406Z,13.70
2023-01-04T08:23:52.248Z,12.27
2023-01-04T08:26:21.682Z,13.27
2023-01-04T08:28:52.735Z,13.60
2023-01-04T08:31:23.342Z,12.63
2023-01-04T08:33:54.034Z,12.23
2023-01-04T08:36:27.556Z,12.77
2023-01-04T08:39:01.096Z,12.07
2023-01-04T08:44:19.447Z,20.73
2023-01-04T08:46:48.610Z,13.13
2023-01-04T08:49:18.763Z,12.50
2023-01-04T08:51:48.139Z,10.03
2023-01-04T08:54:17.069Z,8.30
2023-01-04T08:56:45.627Z,8.70
2023-01-04T08:59:14.536Z,12.20
2023-01-04T09:01:43.431Z,15.83
2023-01-04T09:04:12.080Z,10.30
2023-01-04T09:06:42.734Z,9.60
2023-01-04T09:09:11.364Z,7.87
2023-01-04T09:11:39.948Z,8.00
2023-01-04T09:14:10.450Z,7.60
2023-01-04T09:16:39.615Z,7.97
2023-01-04T09:19:08.462Z,7.63
2023-01-04T09:21:37.014Z,7.30
2023-01-04T09:24:07.389Z,7.23
2023-01-04T09:26:36.026Z,6.87
2023-01-04T09:29:05.261Z,6.63
2023-01-04T09:31:34.248Z,6.20
2023-01-04T09:34:18.450Z,5.93
2023-01-04T09:36:48.215Z,8.43
2023-01-04T09:39:23.107Z,6.77
2023-01-04T09:41:57.668Z,6.20
2023-01-04T09:45:12.189Z,6.60
2023-01-04T09:47:30.522Z,6.50
2023-01-04T09:50:01.306Z,6.40
2023-01-04T09:52:42.226Z,6.77
2023-01-04T09:55:39.684Z,6.40
2023-01-04T09:58:19.395Z,6.50
2023-01-04T10:00:50.635Z,5.90
2023-01-04T10:03:22.329Z,5.60
2023-01-04T10:05:51.705Z,4.93
2023-01-04T10:08:21.089Z,4.97
2023-01-04T10:10:57.472Z,5.40
2023-01-04T10:13:38.335Z,5.57
2023-01-04T10:16:17.697Z,5.50
2023-01-04T10:19:50.875Z,5.47
2023-01-04T10:21:50.679Z,5.70
2023-01-04T10:24:36.462Z,5.00
2023-01-04T10:27:09.536Z,6.30
2023-01-04T10:29:43.613Z,5.50
2023-01-04T10:32:20.523Z,5.83
2023-01-04T10:34:49.614Z,8.47
2023-01-04T10:37:21.848Z,7.57
2023-01-04T10:39:55.135Z,12.83
2023-01-04T10:42:33.361Z,10.30
2023-01-04T10:45:13.600Z,5.83
2023-01-04T10:47:47.870Z,5.47
2023-01-04T10:50:20.185Z,5.27
2023-01-04T10:52:51.934Z,4.73
2023-01-04T10:55:26.141Z,4.87
2023-01-04T10:58:00.252Z,4.80
2023-01-04T11:00:32.075Z,4.67
2023-01-04T11:03:08.789Z,4.43
2023-01-04T11:05:40.561Z,4.57
2023-01-04T11:08:13.616Z,4.10
2023-01-04T11:10:44.931Z,4.33
2023-01-04T11:13:14.937Z,4.30
2023-01-04T11:15:45.415Z,4.67
2023-01-04T11:18:14.324Z,4.23
2023-01-04T11:20:43.058Z,3.97
2023-01-04T11:23:15.394Z,4.10
2023-01-04T11:25:53.622Z,4.03
2023-01-04T11:28:30.170Z,4.07
2023-01-04T11:31:04.884Z,4.50
2023-01-04T11:33:52.924Z,4.30
2023-01-04T11:36:35.592Z,4.57
2023-01-04T11:39:05.867Z,4.10
2023-01-04T11:41:34.518Z,4.00
2023-01-04T11:44:06.925Z,4.27
2023-01-04T11:46:36.171Z,4.10
2023-01-04T11:49:05.863Z,4.27
2023-01-04T11:51:40.964Z,4.20
2023-01-04T11:54:20.647Z,3.90
2023-01-04T11:57:00.705Z,3.60
2023-01-04T11:59:31.011Z,3.10
2023-01-04T12:02:50.625Z,3.80
2023-01-04T12:08:07.975Z,2.90
2023-01-04T12:10:36.489Z,2.50
2023-01-04T12:13:05.073Z,2.40
2023-01-04T12:15:41.149Z,2.40
2023-01-04T12:18:12.992Z,2.50
2023-01-04T12:20:41.469Z,2.33
2023-01-04T12:23:10.913Z,2.13
2023-01-04T12:25:41.901Z,2.03
2023-01-04T12:28:30.555Z,2.40
2023-01-04T12:31:34.090Z,2.40
2023-01-04T12:34:39.216Z,2.40
2023-01-04T12:37:08.084Z,2.40
2023-01-04T12:39:44.355Z,5.60
2023-01-04T12:42:19.588Z,2.67
2023-01-04T12:45:10.697Z,2.43
2023-01-04T12:48:03.451Z,2.60
2023-01-04T12:50:32.385Z,2.37
2023-01-04T12:53:29.457Z,2.40
2023-01-04T12:55:55.623Z,5.47
2023-01-04T12:59:27.154Z,3.10
2023-01-04T13:02:18.198Z,2.60
2023-01-04T13:04:48.462Z,2.60
2023-01-04T13:07:24.541Z,2.83
2023-01-04T13:09:56.123Z,4.03
2023-01-04T13:12:57.140Z,3.40
2023-01-04T13:15:39.719Z,3.70
2023-01-04T13:18:26.116Z,3.40
2023-01-04T13:20:57.143Z,3.30
2023-01-04T13:23:26.845Z,3.33
2023-01-04T13:25:55.426Z,7.60
2023-01-04T13:28:23.997Z,3.53
2023-01-04T13:31:01.407Z,4.93
2023-01-04T13:33:30.228Z,2.60
2023-01-04T13:36:03.923Z,2.90
2023-01-04T13:38:33.791Z,3.00
2023-01-04T13:41:02.303Z,3.27
2023-01-04T13:43:46.474Z,2.87
2023-01-04T13:46:17.072Z,3.33
2023-01-04T13:48:48.387Z,3.00
2023-01-04T13:51:24.117Z,2.97
2023-01-04T13:53:57.666Z,2.70
2023-01-04T13:56:27.679Z,3.17
2023-01-04T13:58:56.413Z,3.47
2023-01-04T14:01:28.112Z,3.00
2023-01-04T14:03:58.582Z,3.00
2023-01-04T14:06:31.060Z,3.27
2023-01-04T14:09:03.528Z,4.50
2023-01-04T14:11:52.308Z,4.93
2023-01-04T14:14:28.816Z,5.20
2023-01-04T14:17:21.058Z,4.90
2023-01-04T14:19:53.041Z,5.10
2023-01-04T14:22:37.895Z,5.20
2023-01-04T14:25:40.786Z,5.90
2023-01-04T14:31:38.474Z,5.17
2023-01-04T14:34:08.948Z,5.70
2023-01-04T14:36:38.837Z,5.83
2023-01-04T14:39:20.331Z,6.60
2023-01-04T14:41:57.637Z,5.97
2023-01-04T14:44:30.819Z,6.83
2023-01-04T14:47:01.691Z,5.27
2023-01-04T14:49:31.556Z,7.13
2023-01-04T14:52:00.905Z,6.53
2023-01-04T14:54:35.175Z,6.10
2023-01-04T14:57:04.873Z,5.93
2023-01-04T14:59:33.591Z,6.17
2023-01-04T15:02:02.411Z,5.37
2023-01-04T15:04:31.072Z,5.47
2023-01-04T15:07:00.970Z,5.40
2023-01-04T15:09:31.076Z,5.60
2023-01-04T15:11:59.803Z,5.60
2023-01-04T15:14:28.380Z,6.27
2023-01-04T15:16:57.050Z,5.37
2023-01-04T15:19:25.650Z,6.00
2023-01-04T15:21:54.188Z,5.77
2023-01-04T15:24:23.121Z,5.43
2023-01-04T15:26:53.034Z,6.87
2023-01-04T15:29:21.612Z,9.70
2023-01-04T15:31:50.160Z,9.97
2023-01-04T15:34:18.811Z,10.50
2023-01-04T15:36:47.580Z,14.03
2023-01-04T15:39:16.431Z,23.73
2023-01-04T15:42:02.611Z,15.20
2023-01-04T15:44:32.517Z,12.43
2023-01-04T15:47:01.066Z,13.90
2023-01-04T15:49:31.019Z,12.77
2023-01-04T15:51:59.633Z,10.80
2023-01-04T15:54:28.571Z,9.97
2023-01-04T15:56:57.206Z,11.47
2023-01-04T15:59:26.035Z,27.97
2023-01-04T16:01:56.379Z,25.90
2023-01-04T16:04:25.787Z,11.60
2023-01-04T16:06:54.356Z,9.07
2023-01-04T16:09:23.010Z,9.80
2023-01-04T16:12:08.962Z,14.27
2023-01-04T16:14:37.450Z,27.07
2023-01-04T16:17:07.496Z,18.77
2023-01-04T16:19:36.057Z,15.20
2023-01-04T16:22:04.576Z,13.03
2023-01-04T16:27:21.685Z,9.40
2023-01-04T16:29:51.543Z,11.07
2023-01-04T16:32:21.509Z,11.10
2023-01-04T16:34:51.231Z,9.67
2023-01-04T16:37:19.855Z,9.83
2023-01-04T16:40:05.791Z,8.23
2023-01-04T16:42:35.197Z,8.87
2023-01-04T16:45:03.813Z,8.40
2023-01-04T16:47:39.983Z,9.50
2023-01-04T16:50:09.849Z,8.53
2023-01-04T16:52:38.662Z,8.57
2023-01-04T16:55:08.353Z,10.33
2023-01-04T16:57:36.938Z,16.20
2023-01-04T17:00:06.492Z,18.70
2023-01-04T17:02:36.416Z,14.97
2023-01-04T17:05:05.438Z,11.67
2023-01-04T17:07:34.594Z,10.77
2023-01-04T17:10:03.187Z,10.03
2023-01-04T17:12:48.724Z,8.40
2023-01-04T17:18:08.774Z,7.90
2023-01-04T17:20:38.085Z,7.83
2023-01-04T17:23:08.878Z,8.00
2023-01-04T17:25:37.418Z,9.17
2023-01-04T17:28:06.150Z,8.00
2023-01-04T17:30:34.855Z,8.20
2023-01-04T17:33:03.568Z,8.60
2023-01-04T17:35:33.578Z,9.40
2023-01-04T17:38:02.092Z,10.83
2023-01-04T17:40:30.548Z,9.53
2023-01-04T17:43:00.594Z,8.57
2023-01-04T17:45:30.364Z,10.40
2023-01-04T17:47:58.923Z,10.70
2023-01-04T17:50:27.411Z,10.30
2023-01-04T17:52:58.472Z,10.63
2023-01-04T17:55:26.970Z,9.90
2023-01-04T17:57:55.494Z,9.37
2023-01-04T18:00:24.125Z,7.97
2023-01-04T18:02:52.796Z,8.37
2023-01-04T18:05:21.361Z,9.60
2023-01-04T18:07:49.893Z,8.80
2023-01-04T18:10:27.124Z,9.17
2023-01-04T18:13:08.515Z,15.23
2023-01-04T18:15:43.990Z,17.00
2023-01-04T18:18:23.880Z,17.57
2023-01-04T18:20:52.585Z,17.50
2023-01-04T18:23:25.829Z,19.70
2023-01-04T18:25:55.977Z,18.87
2023-01-04T18:28:24.564Z,16.60
2023-01-04T18:30:53.178Z,14.27
2023-01-04T18:33:21.719Z,13.57
2023-01-04T18:35:50.213Z,11.70
2023-01-04T18:38:18.791Z,12.20
2023-01-04T18:40:47.935Z,10.93
2023-01-04T18:43:17.857Z,10.87
2023-01-04T18:45:46.441Z,11.93
2023-01-04T18:48:15.087Z,17.37
2023-01-04T18:50:43.630Z,21.07
2023-01-04T18:53:12.389Z,44.60
2023-01-04T18:55:40.920Z,25.97
2023-01-04T18:58:09.433Z,30.90
2023-01-04T19:00:39.364Z,26.17
2023-01-04T19:03:10.921Z,23.47
2023-01-04T19:05:42.092Z,21.13
2023-01-04T19:08:10.671Z,18.03
2023-01-04T19:10:39.344Z,14.57
2023-01-04T19:13:07.832Z,12.97
2023-01-04T19:15:42.719Z,13.20
2023-01-04T19:18:14.157Z,15.80
2023-01-04T19:20:42.773Z,15.67
2023-01-04T19:23:11.278Z,16.03
2023-01-04T19:25:40.227Z,16.30
2023-01-04T19:28:09.700Z,16.80
2023-01-04T19:30:46.808Z,17.27
2023-01-04T19:33:15.647Z,15.70
2023-01-04T19:35:44.865Z,14.70
2023-01-04T19:38:13.759Z,12.83
2023-01-04T19:40:42.708Z,13.83
2023-01-04T19:43:11.332Z,13.03
2023-01-04T19:45:41.823Z,13.53
2023-01-04T19:48:11.728Z,13.57
2023-01-04T19:50:40.271Z,13.60
2023-01-04T19:53:08.874Z,13.20
2023-01-04T19:55:40.081Z,11.90
2023-01-04T19:58:08.668Z,12.43
2023-01-04T20:00:37.238Z,12.03
2023-01-04T20:03:06.139Z,13.40
2023-01-04T20:05:36.693Z,12.60
2023-01-04T20:08:06.932Z,12.83
2023-01-04T20:10:35.655Z,14.83
2023-01-04T20:13:04.181Z,15.73
2023-01-04T20:15:32.756Z,15.33
2023-01-04T20:18:01.375Z,14.47
2023-01-04T20:20:29.993Z,15.30
2023-01-04T20:23:00.165Z,15.90
2023-01-04T20:25:28.688Z,14.20
2023-01-04T20:27:57.220Z,14.80
2023-01-04T20:30:25.737Z,14.53
2023-01-04T20:32:54.232Z,14.97
2023-01-04T20:35:26.240Z,14.63
2023-01-04T20:37:56.809Z,13.80
2023-01-04T20:40:26.959Z,14.53
2023-01-04T20:43:13.193Z,12.90
2023-01-04T20:45:45.871Z,11.97
2023-01-04T20:48:15.340Z,13.70
2023-01-04T20:50:44.271Z,13.77
2023-01-04T20:53:13.636Z,11.87
2023-01-04T20:55:44.361Z,9.80
2023-01-04T20:58:14.500Z,9.70
2023-01-04T21:00:43.728Z,9.07
2023-01-04T21:03:12.661Z,8.90
2023-01-04T21:05:42.717Z,9.33
2023-01-04T21:08:12.151Z,8.87
2023-01-04T21:10:43.902Z,9.50
2023-01-04T21:13:13.517Z,12.17
2023-01-04T21:15:42.212Z,13.90
2023-01-04T21:18:11.879Z,11.17
2023-01-04T21:20:41.904Z,10.00
2023-01-04T21:23:10.799Z,8.43
2023-01-04T21:25:40.944Z,8.00
2023-01-04T21:28:11.526Z,8.20
2023-01-04T21:30:41.535Z,8.47
2023-01-04T21:33:11.067Z,8.37
2023-01-04T21:35:39.932Z,7.80
2023-01-04T21:38:08.973Z,14.30
2023-01-04T21:40:39.311Z,10.03
2023-01-04T21:43:07.826Z,8.82
2023-01-04T21:45:41.633Z,7.23
2023-01-04T21:48:10.289Z,6.37
2023-01-04T21:50:38.960Z,6.57
2023-01-04T21:53:07.465Z,7.17
2023-01-04T21:55:36.032Z,7.17
2023-01-04T21:58:04.608Z,7.10
2023-01-04T22:00:33.122Z,7.10
2023-01-04T22:03:03.133Z,6.60
2023-01-04T22:05:32.664Z,6.97
2023-01-04T22:08:01.601Z,6.60
2023-01-04T22:10:30.132Z,7.10
2023-01-04T22:12:58.627Z,6.70
2023-01-04T22:15:27.240Z,7.17
2023-01-04T22:17:56.005Z,6.80
2023-01-04T22:20:25.913Z,7.07
2023-01-04T22:22:54.541Z,7.20
2023-01-04T22:25:23.254Z,8.00
2023-01-04T22:27:51.841Z,20.57
2023-01-04T22:30:20.561Z,17.47
2023-01-04T22:32:49.476Z,11.87
2023-01-04T22:35:19.184Z,10.23
2023-01-04T22:37:49.147Z,8.00
2023-01-04T22:40:17.852Z,7.23
2023-01-04T22:42:46.330Z,7.57
2023-01-04T22:45:14.975Z,6.63
2023-01-04T22:47:43.482Z,6.90
2023-01-04T22:50:12.496Z,7.13
2023-01-04T22:52:43.615Z,6.93
2023-01-04T22:55:17.653Z,6.60
2023-01-04T22:57:46.451Z,6.00
2023-01-04T23:00:16.201Z,6.33
2023-01-04T23:02:44.764Z,6.60
2023-01-04T23:05:13.339Z,7.20
2023-01-04T23:07:41.874Z,8.07
2023-01-04T23:10:10.699Z,8.23
2023-01-04T23:12:40.701Z,7.93
2023-01-04T23:15:10.403Z,8.80
2023-01-04T23:17:39.106Z,9.57
2023-01-04T23:20:10.512Z,9.50
2023-01-04T23:22:39.380Z,8.07
2023-01-04T23:25:09.195Z,7.37
2023-01-04T23:27:37.716Z,6.97
2023-01-04T23:30:08.744Z,7.50
2023-01-04T23:32:37.264Z,7.10
2023-01-04T23:35:06.185Z,7.43
2023-01-04T23:37:34.676Z,7.50
2023-01-04T23:40:03.313Z,8.40
2023-01-04T23:42:31.923Z,8.63
2023-01-04T23:45:00.416Z,8.40
2023-01-04T23:47:30.341Z,8.07
2023-01-04T23:49:58.894Z,7.63
2023-01-04T23:52:27.413Z,6.97
2023-01-04T23:54:56.143Z,6.20
2023-01-04T23:57:24.703Z,5.47
2023-01-04T23:59:53.240Z,5.60
